sensor_id;sensor_type;location;lat;lon;timestamp;pressure;altitude;pressure_sealevel;temperature;humidity
76448;BME280;65284;51.040;13.722;2023-04-24T00:01:59;98656.66;;;12.39;79.71
76448;BME280;65284;51.040;13.722;2023-04-24T00:04:27;98656.06;;;12.37;79.78
76448;BME280;65284;51.040;13.722;2023-04-24T00:06:54;98656.06;;;12.30;80.14
76448;BME280;65284;51.040;13.722;2023-04-24T00:09:23;98658.13;;;12.35;79.80
76448;BME280;65284;51.040;13.722;2023-04-24T00:11:50;98647.47;;;12.41;79.75
76448;BME280;65284;51.040;13.722;2023-04-24T00:14:16;98650.75;;;12.37;80.01
76448;BME280;65284;51.040;13.722;2023-04-24T00:16:43;98650.75;;;12.37;80.03
76448;BME280;65284;51.040;13.722;2023-04-24T00:19:09;98657.47;;;12.39;79.77
76448;BME280;65284;51.040;13.722;2023-04-24T00:21:38;98674.09;;;12.41;79.56
76448;BME280;65284;51.040;13.722;2023-04-24T00:24:04;98693.13;;;12.32;80.04
76448;BME280;65284;51.040;13.722;2023-04-24T00:26:31;98672.06;;;12.37;80.26
76448;BME280;65284;51.040;13.722;2023-04-24T00:28:57;98676.56;;;12.43;79.84
76448;BME280;65284;51.040;13.722;2023-04-24T00:31:24;98676.13;;;12.39;79.82
76448;BME280;65284;51.040;13.722;2023-04-24T00:33:50;98675.31;;;12.39;80.19
76448;BME280;65284;51.040;13.722;2023-04-24T00:36:17;98675.72;;;12.29;80.52
76448;BME280;65284;51.040;13.722;2023-04-24T00:38:45;98676.72;;;12.21;80.74
76448;BME280;65284;51.040;13.722;2023-04-24T00:41:12;98681.47;;;12.26;80.59
76448;BME280;65284;51.040;13.722;2023-04-24T00:43:39;98681.06;;;12.29;80.63
76448;BME280;65284;51.040;13.722;2023-04-24T00:46:05;98675.31;;;12.25;80.93
76448;BME280;65284;51.040;13.722;2023-04-24T00:48:32;98668.97;;;12.40;80.11
76448;BME280;65284;51.040;13.722;2023-04-24T00:50:59;98668.56;;;12.29;80.60
76448;BME280;65284;51.040;13.722;2023-04-24T00:53:25;98666.50;;;12.32;80.59
76448;BME280;65284;51.040;13.722;2023-04-24T00:55:52;98662.22;;;12.31;80.56
76448;BME280;65284;51.040;13.722;2023-04-24T00:58:18;98667.56;;;12.31;80.48
76448;BME280;65284;51.040;13.722;2023-04-24T01:00:45;98664.25;;;12.28;80.86
76448;BME280;65284;51.040;13.722;2023-04-24T01:03:12;98644.19;;;12.33;80.86
76448;BME280;65284;51.040;13.722;2023-04-24T01:05:41;98656.50;;;12.34;80.58
76448;BME280;65284;51.040;13.722;2023-04-24T01:08:08;98652.00;;;12.27;80.98
76448;BME280;65284;51.040;13.722;2023-04-24T01:10:35;98655.66;;;12.26;80.82
76448;BME280;65284;51.040;13.722;2023-04-24T01:13:03;98651.16;;;12.20;80.99
76448;BME280;65284;51.040;13.722;2023-04-24T01:15:29;98658.31;;;12.26;80.70
76448;BME280;65284;51.040;13.722;2023-04-24T01:17:55;98654.84;;;12.19;81.02
76448;BME280;65284;51.040;13.722;2023-04-24T01:20:24;98662.84;;;12.19;81.13
76448;BME280;65284;51.040;13.722;2023-04-24T01:22:54;98666.72;;;12.17;81.37
76448;BME280;65284;51.040;13.722;2023-04-24T01:25:21;98672.84;;;12.17;81.68
76448;BME280;65284;51.040;13.722;2023-04-24T01:27:47;98670.00;;;12.19;81.63
76448;BME280;65284;51.040;13.722;2023-04-24T01:30:14;98670.81;;;12.19;81.26
76448;BME280;65284;51.040;13.722;2023-04-24T01:32:41;98667.34;;;12.19;81.45
76448;BME280;65284;51.040;13.722;2023-04-24T01:35:10;98672.44;;;12.20;81.39
76448;BME280;65284;51.040;13.722;2023-04-24T01:37:37;98676.16;;;12.19;81.69
76448;BME280;65284;51.040;13.722;2023-04-24T01:40:05;98667.13;;;12.20;81.50
76448;BME280;65284;51.040;13.722;2023-04-24T01:42:34;98666.72;;;12.23;81.29
76448;BME280;65284;51.040;13.722;2023-04-24T01:45:02;98669.16;;;12.18;81.90
76448;BME280;65284;51.040;13.722;2023-04-24T01:47:30;98667.53;;;12.17;82.04
76448;BME280;65284;51.040;13.722;2023-04-24T01:49:57;98661.41;;;12.17;81.66
76448;BME280;65284;51.040;13.722;2023-04-24T01:52:24;98656.06;;;12.23;81.60
76448;BME280;65284;51.040;13.722;2023-04-24T01:54:52;98658.72;;;12.23;81.70
76448;BME280;65284;51.040;13.722;2023-04-24T01:57:18;98653.41;;;12.23;81.55
76448;BME280;65284;51.040;13.722;2023-04-24T01:59:45;98658.53;;;12.25;81.64
76448;BME280;65284;51.040;13.722;2023-04-24T02:02:11;98659.56;;;12.17;81.67
76448;BME280;65284;51.040;13.722;2023-04-24T02:04:39;98658.09;;;12.21;81.71
76448;BME280;65284;51.040;13.722;2023-04-24T02:07:05;98658.09;;;12.21;81.74
76448;BME280;65284;51.040;13.722;2023-04-24T02:09:31;98652.38;;;12.18;82.15
76448;BME280;65284;51.040;13.722;2023-04-24T02:11:58;98654.84;;;12.19;82.06
76448;BME280;65284;51.040;13.722;2023-04-24T02:14:24;98646.25;;;12.17;82.17
76448;BME280;65284;51.040;13.722;2023-04-24T02:16:51;98648.91;;;12.17;82.00
76448;BME280;65284;51.040;13.722;2023-04-24T02:19:17;98648.28;;;12.15;81.96
76448;BME280;65284;51.040;13.722;2023-04-24T02:21:44;98656.06;;;12.17;81.92
76448;BME280;65284;51.040;13.722;2023-04-24T02:24:10;98657.91;;;12.16;82.01
76448;BME280;65284;51.040;13.722;2023-04-24T02:26:37;98654.63;;;12.14;81.94
76448;BME280;65284;51.040;13.722;2023-04-24T02:29:04;98652.78;;;12.15;82.17
76448;BME280;65284;51.040;13.722;2023-04-24T02:31:30;98657.69;;;12.18;81.95
76448;BME280;65284;51.040;13.722;2023-04-24T02:33:57;98655.25;;;12.16;82.22
76448;BME280;65284;51.040;13.722;2023-04-24T02:36:23;98668.16;;;12.19;81.91
76448;BME280;65284;51.040;13.722;2023-04-24T02:38:50;98658.53;;;12.32;81.13
76448;BME280;65284;51.040;13.722;2023-04-24T02:41:17;98655.25;;;12.29;81.08
76448;BME280;65284;51.040;13.722;2023-04-24T02:43:43;98658.94;;;12.22;81.54
76448;BME280;65284;51.040;13.722;2023-04-24T02:46:09;98649.53;;;12.19;81.27
76448;BME280;65284;51.040;13.722;2023-04-24T02:48:36;98665.09;;;12.22;81.49
76448;BME280;65284;51.040;13.722;2023-04-24T02:51:03;98658.94;;;12.15;81.90
76448;BME280;65284;51.040;13.722;2023-04-24T02:53:29;98652.38;;;12.18;81.75
76448;BME280;65284;51.040;13.722;2023-04-24T02:55:56;98656.25;;;12.15;81.96
76448;BME280;65284;51.040;13.722;2023-04-24T02:58:23;98645.22;;;12.32;80.92
76448;BME280;65284;51.040;13.722;2023-04-24T03:00:53;98657.69;;;12.24;80.99
76448;BME280;65284;51.040;13.722;2023-04-24T03:03:20;98649.53;;;12.26;80.56
76448;BME280;65284;51.040;13.722;2023-04-24T03:05:47;98647.03;;;12.24;81.09
76448;BME280;65284;51.040;13.722;2023-04-24T03:08:13;98642.75;;;12.23;81.64
76448;BME280;65284;51.040;13.722;2023-04-24T03:10:40;98647.66;;;12.26;81.85
76448;BME280;65284;51.040;13.722;2023-04-24T03:13:07;98641.34;;;12.27;81.92
76448;BME280;65284;51.040;13.722;2023-04-24T03:15:33;98644.59;;;12.23;82.23
76448;BME280;65284;51.040;13.722;2023-04-24T03:18:00;98647.47;;;12.21;81.92
76448;BME280;65284;51.040;13.722;2023-04-24T03:20:26;98644.41;;;12.18;82.38
76448;BME280;65284;51.040;13.722;2023-04-24T03:22:53;98649.53;;;12.19;82.24
76448;BME280;65284;51.040;13.722;2023-04-24T03:25:20;98652.38;;;12.24;82.11
76448;BME280;65284;51.040;13.722;2023-04-24T03:27:46;98649.09;;;12.36;78.83
76448;BME280;65284;51.040;13.722;2023-04-24T03:30:12;98648.50;;;12.34;80.15
76448;BME280;65284;51.040;13.722;2023-04-24T03:32:39;98649.91;;;12.29;80.93
76448;BME280;65284;51.040;13.722;2023-04-24T03:35:06;98649.09;;;12.29;81.20
76448;BME280;65284;51.040;13.722;2023-04-24T03:37:34;98656.06;;;12.30;80.85
76448;BME280;65284;51.040;13.722;2023-04-24T03:40:01;98656.06;;;12.23;81.02
76448;BME280;65284;51.040;13.722;2023-04-24T03:42:28;98656.06;;;12.23;80.49
76448;BME280;65284;51.040;13.722;2023-04-24T03:44:54;98660.19;;;12.19;80.81
76448;BME280;65284;51.040;13.722;2023-04-24T03:47:21;98670.41;;;12.22;79.46
76448;BME280;65284;51.040;13.722;2023-04-24T03:49:47;98666.72;;;12.23;78.18
76448;BME280;65284;51.040;13.722;2023-04-24T03:52:13;98666.28;;;12.33;77.01
76448;BME280;65284;51.040;13.722;2023-04-24T03:54:40;98665.47;;;12.33;76.36
76448;BME280;65284;51.040;13.722;2023-04-24T03:57:06;98664.25;;;12.42;76.00
76448;BME280;65284;51.040;13.722;2023-04-24T03:59:33;98676.97;;;12.40;76.11
76448;BME280;65284;51.040;13.722;2023-04-24T04:01:59;98678.19;;;12.44;75.75
76448;BME280;65284;51.040;13.722;2023-04-24T04:04:26;98693.53;;;12.42;75.54
76448;BME280;65284;51.040;13.722;2023-04-24T04:06:53;98683.50;;;12.57;73.86
76448;BME280;65284;51.040;13.722;2023-04-24T04:09:19;98692.50;;;12.56;73.65
76448;BME280;65284;51.040;13.722;2023-04-24T04:11:45;98685.75;;;12.53;73.45
76448;BME280;65284;51.040;13.722;2023-04-24T04:14:12;98679.81;;;12.58;72.88
76448;BME280;65284;51.040;13.722;2023-04-24T04:16:38;98676.13;;;12.59;72.74
76448;BME280;65284;51.040;13.722;2023-04-24T04:19:05;98687.59;;;12.66;71.90
76448;BME280;65284;51.040;13.722;2023-04-24T04:21:31;98682.66;;;12.77;71.64
76448;BME280;65284;51.040;13.722;2023-04-24T04:23:58;98689.22;;;12.67;72.05
76448;BME280;65284;51.040;13.722;2023-04-24T04:26:25;98691.28;;;12.65;71.76
76448;BME280;65284;51.040;13.722;2023-04-24T04:28:52;98693.72;;;12.73;71.57
76448;BME280;65284;51.040;13.722;2023-04-24T04:31:19;98687.97;;;12.77;71.29
76448;BME280;65284;51.040;13.722;2023-04-24T04:33:47;98689.22;;;12.67;71.40
76448;BME280;65284;51.040;13.722;2023-04-24T04:36:13;98688.00;;;12.70;71.20
76448;BME280;65284;51.040;13.722;2023-04-24T04:38:40;98686.38;;;12.69;71.29
76448;BME280;65284;51.040;13.722;2023-04-24T04:41:08;98687.59;;;12.66;71.65
76448;BME280;65284;51.040;13.722;2023-04-24T04:43:34;98686.56;;;12.67;71.23
76448;BME280;65284;51.040;13.722;2023-04-24T04:46:02;98685.94;;;12.65;71.02
76448;BME280;65284;51.040;13.722;2023-04-24T04:48:29;98685.13;;;12.65;71.01
76448;BME280;65284;51.040;13.722;2023-04-24T04:50:57;98686.16;;;12.70;70.59
76448;BME280;65284;51.040;13.722;2023-04-24T04:53:24;98686.34;;;12.75;70.81
76448;BME280;65284;51.040;13.722;2023-04-24T04:55:50;98689.59;;;12.91;71.92
76448;BME280;65284;51.040;13.722;2023-04-24T04:58:17;98690.00;;;12.88;71.85
76448;BME280;65284;51.040;13.722;2023-04-24T05:00:43;98692.03;;;12.99;71.44
76448;BME280;65284;51.040;13.722;2023-04-24T05:03:10;98694.50;;;12.94;71.24
76448;BME280;65284;51.040;13.722;2023-04-24T05:05:46;98692.03;;;12.99;70.50
76448;BME280;65284;51.040;13.722;2023-04-24T05:08:13;98697.56;;;12.97;69.31
76448;BME280;65284;51.040;13.722;2023-04-24T05:10:43;98699.00;;;13.00;69.46
76448;BME280;65284;51.040;13.722;2023-04-24T05:13:09;98698.81;;;12.95;69.27
76448;BME280;65284;51.040;13.722;2023-04-24T05:15:36;98688.34;;;13.00;68.38
76448;BME280;65284;51.040;13.722;2023-04-24T05:18:02;98700.22;;;12.97;68.37
76448;BME280;65284;51.040;13.722;2023-04-24T05:20:29;98695.31;;;13.01;69.02
76448;BME280;65284;51.040;13.722;2023-04-24T05:22:55;98698.56;;;13.16;68.12
76448;BME280;65284;51.040;13.722;2023-04-24T05:25:22;98705.13;;;13.14;68.37
76448;BME280;65284;51.040;13.722;2023-04-24T05:27:48;98691.53;;;13.22;68.67
76448;BME280;65284;51.040;13.722;2023-04-24T05:30:15;98697.94;;;13.14;68.85
76448;BME280;65284;51.040;13.722;2023-04-24T05:32:41;98702.44;;;13.20;68.36
76448;BME280;65284;51.040;13.722;2023-04-24T05:35:08;98695.28;;;13.14;68.11
76448;BME280;65284;51.040;13.722;2023-04-24T05:37:34;98695.28;;;13.14;67.82
76448;BME280;65284;51.040;13.722;2023-04-24T05:40:01;98697.72;;;13.16;67.40
76448;BME280;65284;51.040;13.722;2023-04-24T05:42:27;98699.38;;;13.17;67.97
76448;BME280;65284;51.040;13.722;2023-04-24T05:44:53;98698.53;;;13.23;67.75
76448;BME280;65284;51.040;13.722;2023-04-24T05:47:23;98697.34;;;13.26;67.58
76448;BME280;65284;51.040;13.722;2023-04-24T05:49:49;98697.34;;;13.26;67.50
76448;BME280;65284;51.040;13.722;2023-04-24T05:52:15;98700.16;;;13.31;68.00
76448;BME280;65284;51.040;13.722;2023-04-24T05:54:42;98700.97;;;13.38;67.12
76448;BME280;65284;51.040;13.722;2023-04-24T05:57:08;98705.88;;;13.41;67.09
76448;BME280;65284;51.040;13.722;2023-04-24T05:59:37;98700.31;;;13.49;66.47
76448;BME280;65284;51.040;13.722;2023-04-24T06:02:04;98709.94;;;13.50;66.97
76448;BME280;65284;51.040;13.722;2023-04-24T06:04:32;98712.16;;;13.60;66.28
76448;BME280;65284;51.040;13.722;2023-04-24T06:06:59;98715.22;;;13.63;66.17
76448;BME280;65284;51.040;13.722;2023-04-24T06:09:25;98717.72;;;13.58;65.95
76448;BME280;65284;51.040;13.722;2023-04-24T06:11:52;98707.06;;;13.58;66.07
76448;BME280;65284;51.040;13.722;2023-04-24T06:14:20;98706.00;;;13.59;66.18
76448;BME280;65284;51.040;13.722;2023-04-24T06:16:46;98709.53;;;13.53;65.43
76448;BME280;65284;51.040;13.722;2023-04-24T06:19:15;98712.72;;;13.69;65.42
76448;BME280;65284;51.040;13.722;2023-04-24T06:21:41;98713.53;;;13.69;65.46
76448;BME280;65284;51.040;13.722;2023-04-24T06:24:08;98711.72;;;14.08;64.43
76448;BME280;65284;51.040;13.722;2023-04-24T06:26:35;98717.25;;;14.06;64.52
76448;BME280;65284;51.040;13.722;2023-04-24T06:29:01;98717.94;;;13.95;64.51
76448;BME280;65284;51.040;13.722;2023-04-24T06:31:28;98719.59;;;13.96;64.56
76448;BME280;65284;51.040;13.722;2023-04-24T06:34:01;98718.78;;;13.89;65.07
76448;BME280;65284;51.040;13.722;2023-04-24T06:36:28;98719.59;;;13.96;64.43
76448;BME280;65284;51.040;13.722;2023-04-24T06:38:54;98720.34;;;14.03;64.14
76448;BME280;65284;51.040;13.722;2023-04-24T06:41:21;98721.97;;;14.04;63.50
76448;BME280;65284;51.040;13.722;2023-04-24T06:43:47;98713.72;;;14.13;63.56
76448;BME280;65284;51.040;13.722;2023-04-24T06:46:14;98708.13;;;14.21;63.77
76448;BME280;65284;51.040;13.722;2023-04-24T06:48:41;98711.56;;;14.28;63.59
76448;BME280;65284;51.040;13.722;2023-04-24T06:51:07;98720.88;;;14.19;63.30
76448;BME280;65284;51.040;13.722;2023-04-24T06:53:34;98724.16;;;14.21;63.40
76448;BME280;65284;51.040;13.722;2023-04-24T06:56:01;98727.00;;;14.26;62.62
76448;BME280;65284;51.040;13.722;2023-04-24T06:58:27;98715.59;;;14.37;62.80
76448;BME280;65284;51.040;13.722;2023-04-24T07:00:54;98719.81;;;14.51;62.54
76448;BME280;65284;51.040;13.722;2023-04-24T07:03:22;98728.31;;;14.42;62.54
76448;BME280;65284;51.040;13.722;2023-04-24T07:05:50;98723.34;;;14.45;62.42
76448;BME280;65284;51.040;13.722;2023-04-24T07:08:17;98727.41;;;14.54;61.79
76448;BME280;65284;51.040;13.722;2023-04-24T07:10:45;98730.63;;;14.63;61.86
76448;BME280;65284;51.040;13.722;2023-04-24T07:13:12;98733.22;;;14.70;61.04
76448;BME280;65284;51.040;13.722;2023-04-24T07:15:38;98731.28;;;14.59;60.90
76448;BME280;65284;51.040;13.722;2023-04-24T07:18:06;98725.75;;;14.78;60.94
76448;BME280;65284;51.040;13.722;2023-04-24T07:20:32;98733.84;;;14.72;60.29
76448;BME280;65284;51.040;13.722;2023-04-24T07:22:59;98740.44;;;14.69;61.07
76448;BME280;65284;51.040;13.722;2023-04-24T07:25:28;98728.22;;;14.80;61.60
76448;BME280;65284;51.040;13.722;2023-04-24T07:27:55;98730.91;;;14.80;61.62
76448;BME280;65284;51.040;13.722;2023-04-24T07:30:21;98732.06;;;14.84;61.23
76448;BME280;65284;51.040;13.722;2023-04-24T07:32:48;98726.97;;;14.83;61.33
76448;BME280;65284;51.040;13.722;2023-04-24T07:35:14;98739.13;;;14.78;61.12
76448;BME280;65284;51.040;13.722;2023-04-24T07:37:41;98739.13;;;14.78;61.57
76448;BME280;65284;51.040;13.722;2023-04-24T07:40:12;98727.06;;;14.94;60.82
76448;BME280;65284;51.040;13.722;2023-04-24T07:42:39;98742.16;;;15.07;60.17
76448;BME280;65284;51.040;13.722;2023-04-24T07:45:06;98731.81;;;15.11;59.37
76448;BME280;65284;51.040;13.722;2023-04-24T07:47:33;98737.69;;;15.01;59.56
76448;BME280;65284;51.040;13.722;2023-04-24T07:49:59;98731.09;;;15.04;59.69
76448;BME280;65284;51.040;13.722;2023-04-24T07:52:26;98732.25;;;15.08;59.30
76448;BME280;65284;51.040;13.722;2023-04-24T07:54:52;98732.06;;;15.09;59.69
76448;BME280;65284;51.040;13.722;2023-04-24T07:57:25;98750.09;;;15.14;59.96
76448;BME280;65284;51.040;13.722;2023-04-24T07:59:51;98743.41;;;15.05;60.33
76448;BME280;65284;51.040;13.722;2023-04-24T08:02:18;98742.97;;;15.08;60.34
76448;BME280;65284;51.040;13.722;2023-04-24T08:04:44;98745.16;;;15.17;59.93
76448;BME280;65284;51.040;13.722;2023-04-24T08:07:11;98756.50;;;15.13;59.82
76448;BME280;65284;51.040;13.722;2023-04-24T08:09:39;98740.88;;;15.10;60.46
76448;BME280;65284;51.040;13.722;2023-04-24T08:12:05;98742.97;;;15.26;59.91
76448;BME280;65284;51.040;13.722;2023-04-24T08:14:32;98738.53;;;15.38;59.89
76448;BME280;65284;51.040;13.722;2023-04-24T08:16:58;98746.69;;;15.43;59.58
76448;BME280;65284;51.040;13.722;2023-04-24T08:19:26;98740.44;;;15.50;58.74
76448;BME280;65284;51.040;13.722;2023-04-24T08:21:53;98751.09;;;15.56;58.65
76448;BME280;65284;51.040;13.722;2023-04-24T08:24:19;98739.13;;;15.59;57.39
76448;BME280;65284;51.040;13.722;2023-04-24T08:26:46;98746.81;;;15.67;57.58
76448;BME280;65284;51.040;13.722;2023-04-24T08:29:12;98740.91;;;15.65;57.04
76448;BME280;65284;51.040;13.722;2023-04-24T08:31:39;98735.84;;;15.57;57.62
76448;BME280;65284;51.040;13.722;2023-04-24T08:34:06;98749.22;;;15.75;57.90
76448;BME280;65284;51.040;13.722;2023-04-24T08:36:38;98743.72;;;15.52;56.26
76448;BME280;65284;51.040;13.722;2023-04-24T08:39:12;98765.03;;;15.58;56.37
76448;BME280;65284;51.040;13.722;2023-04-24T08:41:44;98758.59;;;15.47;56.20
76448;BME280;65284;51.040;13.722;2023-04-24T08:44:13;98763.94;;;15.47;56.26
76448;BME280;65284;51.040;13.722;2023-04-24T08:46:48;98754.72;;;15.43;55.92
76448;BME280;65284;51.040;13.722;2023-04-24T08:49:15;98745.44;;;15.46;56.09
76448;BME280;65284;51.040;13.722;2023-04-24T08:51:48;98760.06;;;15.43;56.14
76448;BME280;65284;51.040;13.722;2023-04-24T08:54:17;98750.53;;;15.29;56.91
76448;BME280;65284;51.040;13.722;2023-04-24T08:56:48;98759.41;;;15.30;56.80
76448;BME280;65284;51.040;13.722;2023-04-24T08:59:21;98752.19;;;15.30;56.22
76448;BME280;65284;51.040;13.722;2023-04-24T09:01:50;98754.72;;;15.43;55.94
76448;BME280;65284;51.040;13.722;2023-04-24T09:04:44;98765.56;;;15.48;54.95
76448;BME280;65284;51.040;13.722;2023-04-24T09:07:18;98752.13;;;15.37;53.06
76448;BME280;65284;51.040;13.722;2023-04-24T09:09:52;98752.94;;;15.37;52.93
76448;BME280;65284;51.040;13.722;2023-04-24T09:12:20;98751.22;;;15.43;53.54
76448;BME280;65284;51.040;13.722;2023-04-24T09:14:52;98764.47;;;15.56;53.78
76448;BME280;65284;51.040;13.722;2023-04-24T09:17:20;98752.19;;;15.67;53.49
76448;BME280;65284;51.040;13.722;2023-04-24T09:19:49;98757.84;;;15.59;53.61
76448;BME280;65284;51.040;13.722;2023-04-24T09:22:16;98768.25;;;15.48;53.74
76448;BME280;65284;51.040;13.722;2023-04-24T09:24:42;98763.44;;;15.39;54.43
76448;BME280;65284;51.040;13.722;2023-04-24T09:27:11;98759.50;;;15.41;55.17
76448;BME280;65284;51.040;13.722;2023-04-24T09:29:38;98763.44;;;15.39;54.61
76448;BME280;65284;51.040;13.722;2023-04-24T09:32:18;98752.34;;;15.54;54.63
76448;BME280;65284;51.040;13.722;2023-04-24T09:34:48;98756.19;;;15.58;54.54
76448;BME280;65284;51.040;13.722;2023-04-24T09:37:39;98761.56;;;15.76;54.19
76448;BME280;65284;51.040;13.722;2023-04-24T09:42:39;98756.19;;;15.58;54.88
76448;BME280;65284;51.040;13.722;2023-04-24T09:45:09;98754.72;;;15.43;54.99
76448;BME280;65284;51.040;13.722;2023-04-24T09:47:42;98764.97;;;15.46;54.77
76448;BME280;65284;51.040;13.722;2023-04-24T09:50:15;98756.00;;;15.59;54.50
76448;BME280;65284;51.040;13.722;2023-04-24T09:52:47;98754.28;;;15.65;54.21
76448;BME280;65284;51.040;13.722;2023-04-24T09:55:21;98758.75;;;15.71;53.68
76448;BME280;65284;51.040;13.722;2023-04-24T09:57:55;98754.69;;;15.68;53.68
76448;BME280;65284;51.040;13.722;2023-04-24T10:00:32;98751.53;;;15.72;53.81
76448;BME280;65284;51.040;13.722;2023-04-24T10:03:03;98765.72;;;15.90;53.31
76448;BME280;65284;51.040;13.722;2023-04-24T10:05:34;98752.59;;;15.71;53.08
76448;BME280;65284;51.040;13.722;2023-04-24T10:08:03;98755.75;;;15.42;53.57
76448;BME280;65284;51.040;13.722;2023-04-24T10:10:31;98760.75;;;15.39;54.09
76448;BME280;65284;51.040;13.722;2023-04-24T10:12:59;98757.09;;;15.33;54.24
76448;BME280;65284;51.040;13.722;2023-04-24T10:15:27;98770.69;;;15.32;54.28
76448;BME280;65284;51.040;13.722;2023-04-24T10:17:54;98759.41;;;15.48;54.10
76448;BME280;65284;51.040;13.722;2023-04-24T10:20:25;98753.41;;;15.71;53.80
76448;BME280;65284;51.040;13.722;2023-04-24T10:22:52;98749.31;;;15.68;53.32
76448;BME280;65284;51.040;13.722;2023-04-24T10:25:21;98746.91;;;15.79;52.56
76448;BME280;65284;51.040;13.722;2023-04-24T10:27:49;98740.34;;;15.93;52.75
76448;BME280;65284;51.040;13.722;2023-04-24T10:30:20;98741.44;;;16.04;51.58
76448;BME280;65284;51.040;13.722;2023-04-24T10:32:46;98739.78;;;16.03;51.72
76448;BME280;65284;51.040;13.722;2023-04-24T10:35:14;98727.63;;;16.19;51.91
76448;BME280;65284;51.040;13.722;2023-04-24T10:37:45;98736.25;;;16.21;51.57
76448;BME280;65284;51.040;13.722;2023-04-24T10:40:17;98733.50;;;16.39;51.58
76448;BME280;65284;51.040;13.722;2023-04-24T10:42:47;98740.50;;;16.40;51.27
76448;BME280;65284;51.040;13.722;2023-04-24T10:45:18;98747.59;;;16.34;51.11
76448;BME280;65284;51.040;13.722;2023-04-24T10:47:57;98730.06;;;16.20;51.46
76448;BME280;65284;51.040;13.722;2023-04-24T10:50:26;98748.25;;;16.18;51.63
76448;BME280;65284;51.040;13.722;2023-04-24T10:52:54;98748.06;;;16.01;52.37
76448;BME280;65284;51.040;13.722;2023-04-24T10:55:47;98747.78;;;15.91;52.40
76448;BME280;65284;51.040;13.722;2023-04-24T10:58:14;98740.63;;;16.03;52.54
76448;BME280;65284;51.040;13.722;2023-04-24T11:00:44;98742.63;;;16.08;52.36
76448;BME280;65284;51.040;13.722;2023-04-24T11:03:27;98744.53;;;16.19;52.60
76448;BME280;65284;51.040;13.722;2023-04-24T11:06:00;98745.34;;;16.20;52.36
76448;BME280;65284;51.040;13.722;2023-04-24T11:08:31;98742.75;;;16.13;52.83
76448;BME280;65284;51.040;13.722;2023-04-24T11:11:01;98752.97;;;16.04;52.87
76448;BME280;65284;51.040;13.722;2023-04-24T11:16:23;98751.00;;;15.81;53.49
76448;BME280;65284;51.040;13.722;2023-04-24T11:19:03;98752.19;;;15.67;53.68
76448;BME280;65284;51.040;13.722;2023-04-24T11:24:23;98760.91;;;15.62;54.42
76448;BME280;65284;51.040;13.722;2023-04-24T11:27:05;98767.97;;;15.57;54.58
76448;BME280;65284;51.040;13.722;2023-04-24T11:35:06;98766.00;;;16.01;53.99
76448;BME280;65284;51.040;13.722;2023-04-24T11:37:38;98762.66;;;16.17;53.47
76448;BME280;65284;51.040;13.722;2023-04-24T11:40:06;98750.06;;;16.36;52.39
76448;BME280;65284;51.040;13.722;2023-04-24T11:42:38;98748.31;;;16.42;52.23
76448;BME280;65284;51.040;13.722;2023-04-24T11:45:10;98749.84;;;16.61;52.39
76448;BME280;65284;51.040;13.722;2023-04-24T11:47:37;98746.50;;;16.66;51.35
76448;BME280;65284;51.040;13.722;2023-04-24T11:50:07;98741.13;;;16.54;51.50
76448;BME280;65284;51.040;13.722;2023-04-24T11:52:37;98750.31;;;16.58;52.32
76448;BME280;65284;51.040;13.722;2023-04-24T11:55:07;98750.31;;;16.58;51.99
76448;BME280;65284;51.040;13.722;2023-04-24T11:57:33;98748.69;;;16.57;51.97
76448;BME280;65284;51.040;13.722;2023-04-24T12:00:02;98749.47;;;16.46;52.45
76448;BME280;65284;51.040;13.722;2023-04-24T12:02:30;98740.75;;;16.74;52.09
76448;BME280;65284;51.040;13.722;2023-04-24T12:04:57;98750.31;;;16.58;52.09
76448;BME280;65284;51.040;13.722;2023-04-24T12:07:24;98751.31;;;16.33;52.10
76448;BME280;65284;51.040;13.722;2023-04-24T12:09:57;98767.31;;;15.80;52.69
76448;BME280;65284;51.040;13.722;2023-04-24T12:12:26;98748.50;;;15.68;52.60
76448;BME280;65284;51.040;13.722;2023-04-24T12:17:31;98764.69;;;15.55;51.77
76448;BME280;65284;51.040;13.722;2023-04-24T12:20:06;98755.09;;;15.65;50.83
76448;BME280;65284;51.040;13.722;2023-04-24T12:22:51;98766.63;;;15.66;48.76
76448;BME280;65284;51.040;13.722;2023-04-24T12:25:24;98779.38;;;15.64;48.27
76448;BME280;65284;51.040;13.722;2023-04-24T12:27:55;98762.91;;;15.48;47.55
76448;BME280;65284;51.040;13.722;2023-04-24T12:30:46;98769.22;;;15.54;47.27
76448;BME280;65284;51.040;13.722;2023-04-24T12:33:21;98758.31;;;15.74;46.28
76448;BME280;65284;51.040;13.722;2023-04-24T12:35:51;98759.91;;;15.93;45.74
76448;BME280;65284;51.040;13.722;2023-04-24T12:38:22;98774.41;;;16.04;46.17
76448;BME280;65284;51.040;13.722;2023-04-24T12:41:05;98770.44;;;16.07;46.07
76448;BME280;65284;51.040;13.722;2023-04-24T12:43:32;98795.03;;;15.85;46.72
76448;BME280;65284;51.040;13.722;2023-04-24T12:45:59;98808.78;;;15.89;47.25
76448;BME280;65284;51.040;13.722;2023-04-24T12:48:26;98776.31;;;15.85;47.66
76448;BME280;65284;51.040;13.722;2023-04-24T12:50:53;98785.09;;;15.74;48.44
76448;BME280;65284;51.040;13.722;2023-04-24T12:53:19;98781.44;;;15.68;47.48
76448;BME280;65284;51.040;13.722;2023-04-24T12:55:46;98781.34;;;15.75;47.03
76448;BME280;65284;51.040;13.722;2023-04-24T12:58:21;98775.09;;;15.63;47.19
76448;BME280;65284;51.040;13.722;2023-04-24T13:00:48;98777.16;;;15.61;47.10
76448;BME280;65284;51.040;13.722;2023-04-24T13:03:15;98757.50;;;15.74;46.58
76448;BME280;65284;51.040;13.722;2023-04-24T13:05:42;98758.50;;;15.91;46.17
76448;BME280;65284;51.040;13.722;2023-04-24T13:08:09;98765.50;;;15.92;46.18
76448;BME280;65284;51.040;13.722;2023-04-24T13:10:36;98761.66;;;16.00;44.71
76448;BME280;65284;51.040;13.722;2023-04-24T13:13:02;98748.28;;;16.00;43.63